Time;durP1;ratioP1;P1;durP2;ratioP2;P2;SDS_P1;SDS_P2;PMS_P1;PMS_P2;Temp;Humidity;BMP_temperature;BMP_pressure;BME280_temperature;BME280_humidity;BME280_pressure;Samples;Min_cycle;Max_cycle;Signal;HPM_P1;HPM_P2
2022/07/26 00:00:38;;;;;;;17.23;8.57;;;;;;;20.37;100.00;96263.56;5049847;28;20222;-78
2022/07/26 00:03:05;;;;;;;13.48;8.35;;;;;;;20.34;100.00;96275.94;5058751;28;20220;-78
2022/07/26 00:05:32;;;;;;;11.63;8.10;;;;;;;20.42;100.00;96279.13;5051554;28;20221;-78
2022/07/26 00:08:10;;;;;;;14.93;9.13;;;;;;;20.50;100.00;96275.75;5053392;28;20198;-78
2022/07/26 00:10:39;;;;;;;12.68;8.77;;;;;;;20.53;100.00;96277.91;5052976;28;20201;-78
2022/07/26 00:13:06;;;;;;;15.30;9.23;;;;;;;20.53;100.00;96275.16;5055884;28;20213;-78
2022/07/26 00:15:34;;;;;;;12.40;9.18;;;;;;;20.39;100.00;96275.91;5050847;28;20236;-78
2022/07/26 00:18:01;;;;;;;12.20;8.95;;;;;;;20.38;100.00;96290.72;5069356;28;20210;-78
2022/07/26 00:20:29;;;;;;;14.85;10.38;;;;;;;20.41;100.00;96283.00;5054777;28;20222;-78
2022/07/26 00:22:56;;;;;;;11.40;8.95;;;;;;;20.45;100.00;96286.78;5054574;28;20214;-78
2022/07/26 00:25:23;;;;;;;14.00;8.63;;;;;;;20.50;100.00;96294.97;5058655;28;20229;-78
2022/07/26 00:27:50;;;;;;;13.02;9.07;;;;;;;20.45;100.00;96278.56;5052349;28;20210;-78
2022/07/26 00:30:17;;;;;;;14.10;8.90;;;;;;;20.47;100.00;96254.41;5054646;28;20224;-78
2022/07/26 00:32:46;;;;;;;15.10;9.05;;;;;;;20.39;100.00;96259.44;5055506;28;20220;-78
2022/07/26 00:35:13;;;;;;;10.48;8.15;;;;;;;20.41;100.00;96261.91;5054715;28;20220;-78
2022/07/26 00:37:41;;;;;;;16.33;9.23;;;;;;;20.36;100.00;96254.53;5053561;28;20229;-78
2022/07/26 00:40:09;;;;;;;14.75;8.70;;;;;;;20.27;100.00;96245.28;5049457;28;20222;-78
2022/07/26 00:42:37;;;;;;;14.82;9.13;;;;;;;20.24;100.00;96256.88;5051231;28;20237;-78
2022/07/26 00:45:06;;;;;;;11.73;8.20;;;;;;;20.29;100.00;96256.78;5053036;28;20202;-78
2022/07/26 00:47:33;;;;;;;8.45;7.35;;;;;;;20.28;100.00;96263.38;5058807;28;20220;-78
2022/07/26 00:50:02;;;;;;;10.25;8.32;;;;;;;20.31;100.00;96265.56;5060221;28;20194;-78
2022/07/26 00:52:29;;;;;;;12.43;8.70;;;;;;;20.32;100.00;96255.41;5058717;28;20205;-78
2022/07/26 00:54:56;;;;;;;12.48;8.82;;;;;;;20.32;100.00;96269.94;5056920;28;20206;-78
2022/07/26 00:57:24;;;;;;;11.85;9.30;;;;;;;20.27;100.00;96267.22;5058148;28;20217;-78
2022/07/26 00:59:51;;;;;;;11.32;8.00;;;;;;;20.21;100.00;96262.94;5056142;28;20218;-78
2022/07/26 01:02:19;;;;;;;9.90;8.00;;;;;;;20.13;100.00;96268.25;5059018;28;20210;-78
2022/07/26 01:04:46;;;;;;;12.45;8.35;;;;;;;20.12;100.00;96281.13;5056565;28;20206;-78
2022/07/26 01:07:15;;;;;;;10.27;8.68;;;;;;;20.17;100.00;96277.50;5061015;28;20225;-78
2022/07/26 01:09:42;;;;;;;12.02;8.85;;;;;;;20.15;100.00;96279.75;5052878;28;20198;-78
2022/07/26 01:12:09;;;;;;;11.48;8.77;;;;;;;20.17;100.00;96278.31;5058873;28;20213;-78
2022/07/26 01:14:36;;;;;;;14.48;8.77;;;;;;;20.16;100.00;96271.19;5050742;28;20221;-78
2022/07/26 01:17:03;;;;;;;11.48;8.82;;;;;;;20.17;100.00;96269.28;5048498;28;20198;-78
2022/07/26 01:19:31;;;;;;;11.20;8.60;;;;;;;20.16;100.00;96268.47;5052555;28;20221;-78
2022/07/26 01:21:59;;;;;;;10.43;8.05;;;;;;;20.23;100.00;96263.47;5049214;28;20264;-78
2022/07/26 01:24:26;;;;;;;13.45;8.98;;;;;;;20.29;100.00;96258.72;5058477;28;20229;-78
2022/07/26 01:26:54;;;;;;;12.95;9.35;;;;;;;20.35;100.00;96266.59;5053994;28;20241;-78
2022/07/26 01:29:21;;;;;;;10.57;8.85;;;;;;;20.36;100.00;96276.47;5054458;28;20216;-78
2022/07/26 01:31:48;;;;;;;12.40;8.77;;;;;;;20.37;100.00;96285.50;5052616;28;20217;-78
2022/07/26 01:34:15;;;;;;;12.40;8.32;;;;;;;20.21;100.00;96257.44;5061434;28;20220;-78
2022/07/26 01:36:42;;;;;;;10.00;7.60;;;;;;;20.17;100.00;96258.31;5047927;28;20206;-78
2022/07/26 01:39:11;;;;;;;10.57;8.32;;;;;;;20.10;100.00;96250.44;5052829;28;20221;-78
2022/07/26 01:41:38;;;;;;;12.43;8.23;;;;;;;20.12;100.00;96263.88;5054345;28;20210;-78
2022/07/26 01:44:06;;;;;;;12.63;8.63;;;;;;;20.10;100.00;96266.91;5049264;28;20206;-78
2022/07/26 01:46:33;;;;;;;11.77;8.38;;;;;;;20.05;100.00;96266.16;5057765;28;20194;-78
2022/07/26 01:49:01;;;;;;;12.00;8.48;;;;;;;20.06;100.00;96268.59;5055510;28;20202;-78
2022/07/26 01:51:28;;;;;;;11.05;8.02;;;;;;;20.01;100.00;96269.47;5051370;28;20204;-78
2022/07/26 01:53:56;;;;;;;10.25;7.75;;;;;;;20.03;100.00;96260.97;5055463;28;20209;-78
2022/07/26 01:56:24;;;;;;;9.30;7.45;;;;;;;20.07;100.00;96264.75;5061239;28;20224;-78
2022/07/26 01:58:51;;;;;;;11.05;8.02;;;;;;;20.09;100.00;96253.47;5046992;28;20223;-78
2022/07/26 02:01:19;;;;;;;10.98;7.90;;;;;;;20.08;100.00;96260.88;5052246;28;20224;-78
2022/07/26 02:03:46;;;;;;;9.40;7.88;;;;;;;20.08;100.00;96262.81;5052819;28;20206;-80
2022/07/26 02:06:13;;;;;;;10.55;7.50;;;;;;;20.01;100.00;96254.94;5051925;28;20213;-78
2022/07/26 02:08:40;;;;;;;10.98;7.90;;;;;;;19.98;100.00;96263.78;5053401;28;20283;-78
2022/07/26 02:11:07;;;;;;;11.20;7.72;;;;;;;19.92;100.00;96257.50;5052873;28;20206;-78
2022/07/26 02:13:38;;;;;;;9.27;7.63;;;;;;;19.90;100.00;96250.72;5047404;28;20209;-78
2022/07/26 02:16:07;;;;;;;11.70;8.40;;;;;;;19.98;100.00;96255.53;5051566;28;20256;-78
2022/07/26 02:18:50;;;;;;;12.18;7.75;;;;;;;19.99;100.00;96262.63;5012950;28;20217;-78
2022/07/26 02:21:17;;;;;;;10.93;8.15;;;;;;;19.84;100.00;96260.06;5058635;28;20240;-78
2022/07/26 02:23:44;;;;;;;10.13;7.85;;;;;;;19.78;100.00;96262.06;5054774;28;20209;-78
2022/07/26 02:26:11;;;;;;;8.68;6.97;;;;;;;19.79;100.00;96271.09;5048525;28;20211;-78
2022/07/26 02:28:39;;;;;;;11.73;7.60;;;;;;;19.75;100.00;96275.50;5049922;28;20205;-78
2022/07/26 02:31:06;;;;;;;9.38;7.60;;;;;;;19.76;100.00;96271.66;5054455;28;20221;-78
2022/07/26 02:33:33;;;;;;;9.18;7.60;;;;;;;19.73;100.00;96266.78;5054655;28;20217;-78
2022/07/26 02:36:00;;;;;;;8.85;7.10;;;;;;;19.59;100.00;96272.94;5050103;28;20205;-78
2022/07/26 02:38:27;;;;;;;11.02;6.93;;;;;;;19.59;100.00;96272.13;5053111;28;20214;-78
2022/07/26 02:40:54;;;;;;;10.70;7.40;;;;;;;19.62;100.00;96263.34;5057255;28;20217;-78
2022/07/26 02:43:21;;;;;;;9.13;6.82;;;;;;;19.72;100.00;96255.00;5056702;28;20628;-78
2022/07/26 02:45:50;;;;;;;8.88;6.45;;;;;;;19.75;100.00;96254.41;5057635;28;20216;-78
2022/07/26 02:48:17;;;;;;;8.93;7.18;;;;;;;19.84;100.00;96249.13;5050188;28;20388;-78
2022/07/26 02:50:44;;;;;;;10.13;7.68;;;;;;;19.83;100.00;96258.44;5074282;28;20206;-78
2022/07/26 02:53:11;;;;;;;11.48;7.55;;;;;;;19.70;100.00;96253.66;5049325;28;20212;-78
2022/07/26 02:55:38;;;;;;;9.88;6.72;;;;;;;19.70;100.00;96270.09;5053454;28;20253;-78
2022/07/26 02:58:05;;;;;;;11.73;7.10;;;;;;;19.73;100.00;96261.31;5056667;28;20209;-78
2022/07/26 03:00:32;;;;;;;9.55;6.60;;;;;;;19.72;100.00;96262.41;5055347;28;20225;-78
2022/07/26 03:03:00;;;;;;;8.77;6.78;;;;;;;19.74;100.00;96268.41;5047052;28;20291;-78
2022/07/26 03:05:27;;;;;;;9.90;7.28;;;;;;;19.74;100.00;96269.22;5055729;28;20269;-78
2022/07/26 03:07:54;;;;;;;10.23;7.75;;;;;;;19.66;100.00;96272.59;5052629;28;20214;-78
2022/07/26 03:10:21;;;;;;;9.00;7.78;;;;;;;19.68;100.00;96264.09;5061578;28;20201;-77
2022/07/26 03:12:48;;;;;;;9.35;7.75;;;;;;;19.71;100.00;96275.28;5051601;28;20211;-77
2022/07/26 03:15:15;;;;;;;12.80;8.00;;;;;;;19.72;100.00;96276.13;5059134;28;20237;-77
2022/07/26 03:17:42;;;;;;;10.38;7.50;;;;;;;19.73;100.00;96277.75;5056653;28;20236;-77
2022/07/26 03:20:13;;;;;;;11.48;7.60;;;;;;;19.65;100.00;96285.47;5053590;28;20209;-78
2022/07/26 03:22:40;;;;;;;11.75;8.73;;;;;;;19.67;100.00;96273.41;5064800;28;20190;-78
2022/07/26 03:25:07;;;;;;;9.30;7.43;;;;;;;19.54;100.00;96275.75;5050724;28;20206;-78
2022/07/26 03:27:34;;;;;;;6.88;5.85;;;;;;;19.43;100.00;96267.88;5056249;28;20201;-78
2022/07/26 03:30:01;;;;;;;7.50;5.72;;;;;;;19.38;100.00;96271.47;5054110;28;20202;-78
2022/07/26 03:32:28;;;;;;;7.72;5.43;;;;;;;19.34;100.00;96280.53;5052747;28;20292;-78
2022/07/26 03:34:55;;;;;;;8.90;5.72;;;;;;;19.35;100.00;96260.28;5048710;28;20203;-78
2022/07/26 03:37:24;;;;;;;6.72;5.57;;;;;;;19.36;100.00;96270.13;5055665;28;20214;-78
2022/07/26 03:39:51;;;;;;;8.05;5.97;;;;;;;19.34;100.00;96270.41;5051476;28;20198;-78
2022/07/26 03:42:18;;;;;;;7.78;5.75;;;;;;;19.33;100.00;96268.78;5057546;28;20209;-77
2022/07/26 03:44:45;;;;;;;8.15;5.97;;;;;;;19.28;100.00;96283.34;5054084;28;20216;-78
2022/07/26 03:47:12;;;;;;;9.65;5.88;;;;;;;19.35;100.00;96283.00;5049904;28;20210;-78
2022/07/26 03:49:39;;;;;;;9.35;5.05;;;;;;;19.27;100.00;96275.41;5051764;28;20205;-77
2022/07/26 03:52:06;;;;;;;11.67;6.03;;;;;;;19.15;100.00;96277.69;5051363;28;20218;-77
2022/07/26 03:54:34;;;;;;;7.40;5.60;;;;;;;19.13;100.00;96279.91;5051252;28;20205;-77
2022/07/26 03:57:00;;;;;;;8.52;5.55;;;;;;;19.17;100.00;96290.00;5058956;28;20230;-77
2022/07/26 03:59:27;;;;;;;8.10;5.95;;;;;;;19.26;100.00;96287.47;5054227;28;20208;-78
2022/07/26 04:01:54;;;;;;;8.73;5.87;;;;;;;19.27;100.00;96291.84;5047649;28;20284;-77
2022/07/26 04:04:21;;;;;;;9.32;5.30;;;;;;;19.11;100.00;96293.88;5051076;28;20194;-77
2022/07/26 04:06:49;;;;;;;8.13;4.88;;;;;;;19.04;100.00;96290.66;5054520;28;20206;-77
2022/07/26 04:09:16;;;;;;;6.97;5.10;;;;;;;19.03;100.00;96286.28;5049257;28;20202;-77
2022/07/26 04:11:46;;;;;;;7.77;5.47;;;;;;;19.01;100.00;96276.72;5053024;28;20229;-78
2022/07/26 04:14:13;;;;;;;8.27;6.00;;;;;;;18.89;100.00;96268.84;5053099;28;20238;-77
2022/07/26 04:16:40;;;;;;;7.43;5.20;;;;;;;18.95;100.00;96266.91;5063191;28;20206;-77
2022/07/26 04:19:08;;;;;;;6.20;5.60;;;;;;;19.02;100.00;96272.88;5055146;28;20213;-77
2022/07/26 04:21:35;;;;;;;8.07;5.80;;;;;;;19.07;100.00;96283.78;5052396;28;20226;-77
2022/07/26 04:24:02;;;;;;;6.33;5.60;;;;;;;19.06;100.00;96280.22;5050869;28;20289;-77
2022/07/26 04:26:29;;;;;;;9.27;5.60;;;;;;;18.98;100.00;96275.34;5053444;28;20201;-77
2022/07/26 04:28:57;;;;;;;8.80;5.47;;;;;;;19.00;100.00;96270.41;5059270;28;20213;-77
2022/07/26 04:31:24;;;;;;;6.07;5.37;;;;;;;19.05;100.00;96272.31;5066888;28;20266;-77
2022/07/26 04:33:52;;;;;;;7.47;6.15;;;;;;;19.13;100.00;96280.72;5058318;28;20205;-77
2022/07/26 04:36:19;;;;;;;8.63;5.40;;;;;;;19.22;100.00;96283.69;5060549;28;20216;-77
2022/07/26 04:38:46;;;;;;;11.13;6.33;;;;;;;19.20;100.00;96291.34;5057283;28;20311;-77
2022/07/26 04:41:13;;;;;;;6.78;5.07;;;;;;;19.16;100.00;96287.53;5052676;28;20247;-77
2022/07/26 04:43:41;;;;;;;9.30;5.50;;;;;;;19.09;100.00;96279.66;5056243;28;20208;-77
2022/07/26 04:46:09;;;;;;;7.27;5.90;;;;;;;19.08;100.00;96279.94;5052083;28;20195;-77
2022/07/26 04:48:37;;;;;;;10.73;6.40;;;;;;;19.10;100.00;96284.03;5047920;28;20194;-77
2022/07/26 04:51:04;;;;;;;7.50;5.40;;;;;;;19.08;100.00;96279.94;5056187;28;20206;-77
2022/07/26 04:53:31;;;;;;;7.50;5.53;;;;;;;19.10;100.00;96281.28;5056365;28;20205;-77
2022/07/26 04:55:59;;;;;;;6.20;5.60;;;;;;;19.17;100.00;96284.53;5054122;28;20221;-77
2022/07/26 04:58:26;;;;;;;8.27;5.55;;;;;;;19.25;100.00;96285.81;5054518;28;20235;-77
2022/07/26 05:00:53;;;;;;;6.23;5.03;;;;;;;19.09;100.00;96281.56;5055358;28;20395;-77
2022/07/26 05:03:23;;;;;;;7.50;6.03;;;;;;;19.09;100.00;96289.78;5058359;28;20209;-77
2022/07/26 05:05:51;;;;;;;10.73;6.47;;;;;;;19.10;100.00;96291.44;5053981;28;20194;-77
2022/07/26 05:08:18;;;;;;;7.90;5.97;;;;;;;19.18;100.00;96299.84;5057999;28;20229;-77
2022/07/26 05:10:45;;;;;;;8.95;5.95;;;;;;;19.22;100.00;96284.47;5047560;28;20211;-77
2022/07/26 05:13:12;;;;;;;6.80;5.75;;;;;;;19.31;100.00;96287.41;5051532;28;20205;-77
2022/07/26 05:15:39;;;;;;;10.43;7.13;;;;;;;19.31;100.00;96270.97;5060442;28;20280;-77
2022/07/26 05:18:08;;;;;;;7.05;5.97;;;;;;;19.25;100.00;96272.94;5053650;28;20216;-77
2022/07/26 05:20:37;;;;;;;8.18;6.10;;;;;;;19.19;100.00;96278.75;5061424;28;20222;-77
2022/07/26 05:23:05;;;;;;;6.70;5.85;;;;;;;19.20;100.00;96288.63;5056579;28;20209;-77
2022/07/26 05:25:32;;;;;;;6.70;5.68;;;;;;;19.21;100.00;96288.34;5056589;28;20228;-77
2022/07/26 05:27:59;;;;;;;8.00;5.73;;;;;;;19.21;100.00;96295.72;5052634;28;20211;-77
2022/07/26 05:30:26;;;;;;;8.30;5.43;;;;;;;19.24;100.00;96287.75;5056114;28;20206;-78
2022/07/26 05:32:53;;;;;;;7.68;5.93;;;;;;;19.30;100.00;96280.31;5059583;28;20209;-78
2022/07/26 05:35:21;;;;;;;6.68;5.93;;;;;;;19.19;100.00;96278.75;5058378;28;20198;-78
2022/07/26 05:37:49;;;;;;;9.53;5.93;;;;;;;19.24;100.00;96278.72;5064238;28;20228;-78
2022/07/26 05:40:17;;;;;;;8.15;6.47;;;;;;;19.23;100.00;96280.63;5055610;28;20211;-78
2022/07/26 05:42:44;;;;;;;8.60;6.00;;;;;;;19.34;100.00;96277.81;5055213;28;20236;-78
2022/07/26 05:45:11;;;;;;;8.60;5.90;;;;;;;19.31;100.00;96273.72;5059204;28;20205;-78
2022/07/26 05:47:38;;;;;;;7.20;6.00;;;;;;;19.27;100.00;96284.44;5058367;28;20210;-78
2022/07/26 05:50:07;;;;;;;7.93;6.18;;;;;;;19.26;100.00;96290.19;5057778;28;20212;-78
2022/07/26 05:52:34;;;;;;;10.37;6.87;;;;;;;19.25;100.00;96297.59;5051490;28;20232;-78
2022/07/26 05:55:02;;;;;;;8.63;7.73;;;;;;;19.23;100.00;96285.28;5058758;28;20212;-78
2022/07/26 05:57:30;;;;;;;9.20;6.70;;;;;;;19.21;100.00;96279.31;5050242;28;20218;-78
2022/07/26 05:59:57;;;;;;;7.93;6.47;;;;;;;19.17;100.00;96281.78;5053070;28;20208;-78
2022/07/26 06:02:24;;;;;;;7.30;6.50;;;;;;;19.30;100.00;96274.84;5054721;28;20236;-78
2022/07/26 06:04:51;;;;;;;9.00;6.10;;;;;;;19.36;100.00;96272.88;5058635;28;20197;-78
2022/07/26 06:07:18;;;;;;;10.70;6.57;;;;;;;19.41;100.00;96276.38;5057011;28;20220;-78
2022/07/26 06:09:45;;;;;;;7.07;6.28;;;;;;;19.41;100.00;96270.06;5049355;28;20205;-78
2022/07/26 06:12:13;;;;;;;7.57;6.00;;;;;;;19.44;100.00;96275.81;5054440;28;20206;-78
2022/07/26 06:14:40;;;;;;;8.25;6.13;;;;;;;19.52;100.00;96277.94;5048265;28;20244;-78
2022/07/26 06:17:07;;;;;;;8.03;5.97;;;;;;;19.55;100.00;96282.03;5072034;28;20198;-78
2022/07/26 06:19:35;;;;;;;10.27;6.32;;;;;;;19.58;100.00;96276.78;5049260;28;20328;-78
2022/07/26 06:22:02;;;;;;;7.43;6.10;;;;;;;19.78;100.00;96285.91;5059415;28;20229;-78
2022/07/26 06:24:29;;;;;;;8.07;6.00;;;;;;;19.85;100.00;96289.94;5058121;28;20296;-75
2022/07/26 06:26:56;;;;;;;10.60;6.00;;;;;;;19.77;100.00;96285.09;5051395;28;20202;-78
2022/07/26 06:29:25;;;;;;;8.07;6.15;;;;;;;19.79;100.00;96282.06;5052684;28;20205;-77
2022/07/26 06:31:52;;;;;;;9.80;6.68;;;;;;;19.79;100.00;96282.06;5050263;28;20231;-77
2022/07/26 06:34:19;;;;;;;10.55;5.78;;;;;;;19.82;100.00;96284.22;5054877;28;20207;-77
2022/07/26 06:36:46;;;;;;;9.60;6.07;;;;;;;19.83;100.00;96277.63;5054806;28;20203;-77
2022/07/26 06:39:13;;;;;;;6.22;5.63;;;;;;;19.85;100.00;96283.63;5044425;28;20200;-78
2022/07/26 06:41:41;;;;;;;8.02;6.03;;;;;;;19.85;100.00;96287.19;5048709;28;20222;-78
2022/07/26 06:44:08;;;;;;;7.15;5.78;;;;;;;19.95;100.00;96287.09;5057739;28;20269;-77
2022/07/26 06:46:36;;;;;;;8.27;6.07;;;;;;;20.03;100.00;96293.84;5060348;28;20209;-77
2022/07/26 06:49:04;;;;;;;8.93;6.10;;;;;;;20.08;100.00;96285.56;5059776;28;20209;-77
2022/07/26 06:51:31;;;;;;;8.38;5.65;;;;;;;20.17;100.00;96283.81;5057196;28;20210;-78
2022/07/26 06:53:58;;;;;;;7.95;6.15;;;;;;;20.29;100.00;96286.94;5057709;28;20201;-78
2022/07/26 06:56:25;;;;;;;7.00;5.20;;;;;;;20.33;100.00;96285.25;5059646;28;20221;-78
2022/07/26 06:58:54;;;;;;;6.20;5.60;;;;;;;20.34;100.00;96295.13;5056274;28;20197;-77
2022/07/26 07:01:21;;;;;;;9.50;5.53;;;;;;;20.40;100.00;96293.16;5049795;28;20229;-78
2022/07/26 07:03:49;;;;;;;8.57;6.38;;;;;;;20.38;100.00;96290.72;5053003;28;20205;-78
2022/07/26 07:06:17;;;;;;;10.85;6.35;;;;;;;20.42;100.00;96290.09;5050792;28;20206;-77
2022/07/26 07:08:44;;;;;;;11.15;6.35;;;;;;;20.43;100.00;96291.75;5051539;28;20303;-77
2022/07/26 07:11:11;;;;;;;7.20;5.50;;;;;;;20.45;100.00;96289.53;5061987;28;20250;-77
2022/07/26 07:13:38;;;;;;;6.63;5.32;;;;;;;20.41;100.00;96288.50;5058518;28;20202;-77
2022/07/26 07:16:06;;;;;;;7.68;6.18;;;;;;;20.45;100.00;96297.75;5056022;28;20240;-77
2022/07/26 07:18:33;;;;;;;10.25;6.10;;;;;;;20.41;100.00;96297.53;5057875;28;20202;-77
2022/07/26 07:21:01;;;;;;;8.35;5.78;;;;;;;20.44;100.00;96285.16;5056367;28;20306;-78
2022/07/26 07:23:28;;;;;;;9.60;6.50;;;;;;;20.48;100.00;96294.44;5058558;28;20194;-78
2022/07/26 07:25:55;;;;;;;7.35;5.85;;;;;;;20.52;100.00;96287.22;5059797;28;20268;-77
2022/07/26 07:28:22;;;;;;;8.07;6.50;;;;;;;20.57;100.00;96279.78;5053566;28;20213;-78
2022/07/26 07:30:49;;;;;;;10.43;5.97;;;;;;;20.63;100.00;96280.50;5056997;28;20294;-77
2022/07/26 07:33:16;;;;;;;7.80;5.20;;;;;;;20.60;100.00;96279.16;5054173;28;20263;-78
2022/07/26 07:35:44;;;;;;;8.10;6.00;;;;;;;20.62;100.00;96273.38;5050483;28;20210;-78
2022/07/26 07:38:12;;;;;;;8.95;5.60;;;;;;;20.67;100.00;96284.31;5065459;28;20213;-78
2022/07/26 07:40:39;;;;;;;6.68;5.18;;;;;;;20.68;100.00;96277.69;5049019;28;20202;-78
2022/07/26 07:43:06;;;;;;;6.75;5.63;;;;;;;20.73;100.00;96291.34;5053118;28;20229;-79
2022/07/26 07:45:33;;;;;;;6.05;4.70;;;;;;;20.73;100.00;96285.84;5064066;28;20293;-79
2022/07/26 07:48:00;;;;;;;6.00;4.68;;;;;;;20.71;100.00;96282.59;5056764;28;20205;-79
2022/07/26 07:50:28;;;;;;;5.38;3.97;;;;;;;20.70;100.00;96287.25;5054533;28;20198;-79
2022/07/26 07:52:55;;;;;;;4.03;3.63;;;;;;;20.67;100.00;96287.84;5065115;28;20205;-79
2022/07/26 07:55:23;;;;;;;3.88;3.00;;;;;;;20.64;100.00;96285.69;5053784;28;20321;-80
2022/07/26 07:57:50;;;;;;;7.75;3.20;;;;;;;20.67;100.00;96284.31;5060516;28;20197;-79
2022/07/26 08:00:18;;;;;;;5.40;3.55;;;;;;;20.61;100.00;96288.22;5062309;28;20217;-79
2022/07/26 08:02:46;;;;;;;4.85;2.70;;;;;;;20.57;100.00;96292.66;5066857;28;20230;-79
2022/07/26 08:05:14;;;;;;;2.67;1.98;;;;;;;20.51;100.00;96304.78;5054448;28;20206;-79
2022/07/26 08:07:41;;;;;;;2.28;1.90;;;;;;;20.50;100.00;96297.72;5053930;28;20240;-77
2022/07/26 08:10:08;;;;;;;4.75;2.33;;;;;;;20.59;100.00;96295.91;5055799;28;20228;-78
2022/07/26 08:12:37;;;;;;;2.03;1.83;;;;;;;20.62;100.00;96300.81;5057666;28;20198;-78
2022/07/26 08:15:06;;;;;;;4.38;1.60;;;;;;;20.57;100.00;96307.19;5052068;28;20287;-79
2022/07/26 08:17:33;;;;;;;2.15;1.40;;;;;;;20.61;100.00;96310.97;5058208;28;20201;-78
2022/07/26 08:20:00;;;;;;;1.27;1.08;;;;;;;20.60;100.00;96312.06;5055015;28;20199;-78
2022/07/26 08:22:27;;;;;;;2.17;1.33;;;;;;;20.60;100.00;96314.81;5056665;28;20231;-79
2022/07/26 08:24:54;;;;;;;1.17;1.05;;;;;;;20.65;100.00;96314.78;5057166;28;20323;-78
2022/07/26 08:27:21;;;;;;;3.28;1.30;;;;;;;20.76;100.00;96318.16;5051358;28;20209;-79
2022/07/26 08:29:49;;;;;;;1.20;1.10;;;;;;;20.74;100.00;96312.19;5060172;28;20213;-79
2022/07/26 08:32:17;;;;;;;1.63;1.20;;;;;;;20.99;100.00;96313.75;5062721;28;20190;-79
2022/07/26 08:34:44;;;;;;;1.88;1.20;;;;;;;21.19;100.00;96318.13;5052924;28;20210;-79
2022/07/26 08:37:11;;;;;;;1.17;1.08;;;;;;;21.10;100.00;96324.25;5054654;28;20210;-79
2022/07/26 08:39:38;;;;;;;2.40;1.15;;;;;;;20.99;100.00;96317.31;5052671;28;20213;-79
2022/07/26 08:42:12;;;;;;;1.10;1.00;;;;;;;20.92;100.00;96316.88;5051389;28;20321;-79
2022/07/26 08:44:42;;;;;;;1.38;1.00;;;;;;;20.89;100.00;96314.72;5055881;28;20205;-79
2022/07/26 08:47:12;;;;;;;4.47;1.25;;;;;;;20.84;100.00;96322.22;5050290;28;20200;-79
2022/07/26 08:49:40;;;;;;;1.75;1.10;;;;;;;20.85;100.00;96324.63;5048787;28;20277;-79
2022/07/26 08:52:07;;;;;;;1.20;1.10;;;;;;;20.93;100.00;96326.72;5046898;28;20233;-78
2022/07/26 08:54:35;;;;;;;1.75;1.20;;;;;;;20.94;100.00;96322.84;5054207;28;20255;-79
2022/07/26 08:57:02;;;;;;;1.40;1.20;;;;;;;20.91;100.00;96328.13;5057758;28;20233;-81
2022/07/26 08:59:30;;;;;;;2.15;1.20;;;;;;;20.91;100.00;96325.41;5060288;28;20229;-78
2022/07/26 09:01:59;;;;;;;1.55;1.45;;;;;;;21.01;100.00;96320.56;5050482;28;20237;-79
2022/07/26 09:04:30;;;;;;;1.30;1.20;;;;;;;20.97;100.00;96321.47;5053508;28;20202;-79
2022/07/26 09:06:59;;;;;;;1.92;1.38;;;;;;;20.85;100.00;96332.88;5053978;28;20241;-81
2022/07/26 09:09:26;;;;;;;1.80;1.30;;;;;;;20.87;100.00;96340.81;5049289;28;20206;-81
2022/07/26 09:11:54;;;;;;;2.10;1.52;;;;;;;20.75;100.00;96333.03;5058017;28;20240;-80
2022/07/26 09:14:22;;;;;;;3.13;1.45;;;;;;;20.66;100.00;96343.03;5057562;28;20225;-80
2022/07/26 09:16:59;;;;;;;2.03;1.35;;;;;;;20.64;100.00;96335.09;5056171;28;20201;-79
2022/07/26 09:19:28;;;;;;;2.67;1.60;;;;;;;20.70;100.00;96330.34;5057384;28;20217;-79
2022/07/26 09:21:56;;;;;;;1.92;1.27;;;;;;;20.73;100.00;96336.06;5051331;28;20241;-80
2022/07/26 09:24:34;;;;;;;2.97;1.30;;;;;;;20.67;100.00;96341.91;5058788;28;20248;-79
2022/07/26 09:27:03;;;;;;;1.77;1.55;;;;;;;20.69;100.00;96345.97;5050706;28;20213;-79
2022/07/26 09:29:31;;;;;;;2.20;1.50;;;;;;;20.79;100.00;96350.53;5051539;28;20264;-79
2022/07/26 09:32:18;;;;;;;3.13;1.58;;;;;;;20.85;100.00;96343.84;5056288;28;20263;-80
2022/07/26 09:34:48;;;;;;;2.78;1.52;;;;;;;20.87;100.00;96351.78;5054484;28;20216;-80
2022/07/26 09:37:16;;;;;;;2.10;1.45;;;;;;;20.94;100.00;96350.31;5052180;28;20205;-78
2022/07/26 09:39:58;;;;;;;1.35;1.15;;;;;;;20.97;100.00;96352.47;5052226;28;20213;-81
2022/07/26 09:42:26;;;;;;;4.00;1.65;;;;;;;20.97;100.00;96346.97;5051652;28;20251;-79
2022/07/26 09:44:54;;;;;;;2.42;1.67;;;;;;;21.05;100.00;96353.72;5050745;28;20262;-79
2022/07/26 09:47:21;;;;;;;1.52;1.40;;;;;;;21.12;100.00;96365.16;5053826;28;20209;-78
2022/07/26 09:49:49;;;;;;;2.63;1.50;;;;;;;21.19;100.00;96359.31;5055440;28;20193;-79
2022/07/26 09:52:18;;;;;;;2.78;1.50;;;;;;;21.19;100.00;96365.63;5056358;28;20227;-79
2022/07/26 09:54:48;;;;;;;1.75;1.60;;;;;;;21.18;100.00;96363.97;5060915;28;20209;-79
2022/07/26 09:57:17;;;;;;;2.15;1.60;;;;;;;21.30;100.00;96366.28;5050270;28;20259;-79
2022/07/26 09:59:45;;;;;;;2.08;1.80;;;;;;;21.32;100.00;96370.38;5045418;28;20259;-77
2022/07/26 10:02:14;;;;;;;2.00;1.60;;;;;;;21.35;100.00;96368.97;5048821;28;20209;-77
2022/07/26 10:04:43;;;;;;;3.17;1.70;;;;;;;21.38;100.00;96373.84;5050315;28;20205;-77
2022/07/26 10:07:11;;;;;;;2.08;1.60;;;;;;;21.60;100.00;96365.00;5044888;28;20198;-77
2022/07/26 10:09:47;;;;;;;3.63;1.70;;;;;;;21.61;100.00;96372.94;5059267;28;20209;-80
2022/07/26 10:12:16;;;;;;;2.83;2.05;;;;;;;21.67;100.00;96362.69;5059433;28;20292;-81
2022/07/26 10:14:45;;;;;;;2.08;1.65;;;;;;;21.79;100.00;96365.75;5048055;28;20257;-79
2022/07/26 10:17:41;;;;;;;2.42;1.77;;;;;;;21.76;100.00;96375.44;5049446;28;20244;-79
2022/07/26 10:20:10;;;;;;;1.90;1.70;;;;;;;21.86;100.00;96375.25;5053795;28;20220;-80
2022/07/26 10:22:45;;;;;;;1.60;1.50;;;;;;;22.03;100.00;96373.91;5051199;28;20228;-80
2022/07/26 10:25:47;;;;;;;2.13;1.80;;;;;;;22.01;97.95;96373.41;5045526;28;20296;-79
2022/07/26 10:28:25;;;;;;;2.13;1.92;;;;;;;21.99;99.84;96372.88;5055895;28;20233;-80
2022/07/26 10:30:59;;;;;;;1.85;1.65;;;;;;;22.00;96.75;96369.00;5057427;28;20201;-80
2022/07/26 10:33:27;;;;;;;2.58;1.65;;;;;;;21.97;96.53;96364.94;5059196;28;20296;-79
2022/07/26 10:35:54;;;;;;;1.60;1.50;;;;;;;21.98;96.73;96365.75;5051782;28;20186;-79
2022/07/26 10:38:28;;;;;;;1.88;1.70;;;;;;;22.03;96.72;96357.41;5054737;28;20252;-79
2022/07/26 10:40:58;;;;;;;2.45;1.60;;;;;;;22.10;97.11;96355.91;5049055;28;20262;-80
2022/07/26 10:43:26;;;;;;;1.88;1.70;;;;;;;22.08;95.53;96349.06;5045878;28;20234;-79
2022/07/26 10:46:23;;;;;;;2.10;1.48;;;;;;;22.22;98.42;96347.97;5038872;28;20210;-80
2022/07/26 10:48:57;;;;;;;2.75;1.73;;;;;;;22.36;95.38;96349.91;5031788;28;20217;-79
2022/07/26 10:51:26;;;;;;;1.90;1.70;;;;;;;22.47;94.86;96354.88;5032738;28;20210;-79
2022/07/26 10:54:02;;;;;;;1.90;1.80;;;;;;;22.65;91.92;96348.47;5041616;28;20262;-81
2022/07/26 10:56:29;;;;;;;1.73;1.60;;;;;;;22.70;92.25;96357.75;5032271;28;20276;-79
2022/07/26 10:58:57;;;;;;;1.70;1.60;;;;;;;22.77;91.93;96344.41;5033350;28;20210;-80
2022/07/26 11:01:33;;;;;;;3.28;1.90;;;;;;;22.71;91.86;96346.44;5039235;28;20289;-79
2022/07/26 11:04:00;;;;;;;4.70;1.83;;;;;;;22.64;93.19;96352.34;5042298;28;20217;-79
2022/07/26 11:06:29;;;;;;;2.70;1.80;;;;;;;22.73;92.77;96344.19;5031457;28;20211;-79
2022/07/26 11:08:56;;;;;;;2.50;1.73;;;;;;;22.80;92.20;96344.59;5042883;28;20198;-79
2022/07/26 11:11:32;;;;;;;3.20;1.77;;;;;;;22.92;90.23;96335.81;5030582;28;20233;-79
2022/07/26 11:14:07;;;;;;;2.58;1.70;;;;;;;22.98;89.37;96334.56;5042320;28;20213;-79
2022/07/26 11:16:39;;;;;;;2.40;1.50;;;;;;;23.01;89.62;96329.28;5034271;28;20226;-79
2022/07/26 11:19:14;;;;;;;2.35;1.88;;;;;;;23.16;89.17;96324.53;5038475;28;20210;-79
2022/07/26 11:21:41;;;;;;;2.10;1.70;;;;;;;23.25;90.91;96323.47;5035545;28;20218;-79
2022/07/26 11:24:08;;;;;;;3.22;2.03;;;;;;;23.42;90.67;96333.00;5034771;28;20222;-79
2022/07/26 11:26:43;;;;;;;1.80;1.63;;;;;;;23.73;86.68;96334.72;5040785;28;20285;-79
2022/07/26 11:29:10;;;;;;;3.53;1.80;;;;;;;23.49;88.68;96322.38;5039700;28;20213;-79